Packwood, WA (98361)

5:40 PM PST on March 02, 2015 (GMT -0800)
APRSWXNET Packwood WA US | Change Station
CLOSE
Current Station
Personal Weather Station
Location: Packwood, WA
Elevation: 1290 ft
Nearby Weather Stations

Elev 1290 ft 46.61 °N, 121.66 °W | Updated 36 minutes ago

Overcast
Overcast
50 °F
Feels Like 50 °F
N
1
Wind Variable Wind from WNW
Gusts 7.0 mph

Today
High -- | Low -- °F
--% Chance of Precip.
Yesterday
High -- | Low -- °F
Precip. -- in
6:44 AM 5:53 PM
Waxing Gibbous, 94% visible
Pressure 30.04 in
Visibility 10.0 miles
Clouds Mostly Cloudy 6500 ft
Dew Point 37 °F
Humidity 61%
Rainfall -999.00 in
Snow Depth Not available.
UV 0 out of 12
Pollen 5.40 out of 12
Air Quality Not available.
Flu Activity Not available.
METAR KPLU 030115Z AUTO VRB04KT 10SM BKN065 10/00 A3004 RMK AO2

More Conditions Fewer Conditions

Pressure 30.04 in
Visibility 10.0 miles
Clouds Mostly Cloudy 6500 ft
Dew Point 37 °F
Humidity 61%
Rainfall -999.00 in
Snow Depth Not available.
UV 0 out of 12
Pollen 5.40 out of 12
Air Quality Not available.
Flu Activity Not available.
METAR KPLU 030115Z AUTO VRB04KT 10SM BKN065 10/00 A3004 RMK AO2

More Conditions Fewer Conditions

10-Day Weather Forecast

Almanac

Astronomy

Mar. 02, 2015 Rise Set
Actual Time
Civil Twilight
Nautical Twilight
Astronomical Twilight
Moon
Length of Visible Light
Length of Day
Tomorrow will be .
, % of the Moon is Illuminated

Today's Extremes

State Highs State Lows

Community

WunderPhotos

Upload Photos

1,802,034 photos uploaded!

WunderBlogs® & News

Nearby

Air Quality

  Air Quality AQ Index Pollutant
Not available.

Snow Depth

Station Depth Elevation

Earthquake Activity

City Distance Mag. Time & Date
Minimum magnitude displayed is 2.5.

Coastal Water Temperatures

Place Temperature

Nearby Weather Stations